createdAt,value
2019-06-26T00:00:08.166Z,99.90
2019-06-26T00:02:36.865Z,99.90
2019-06-26T00:05:08.255Z,99.90
2019-06-26T00:07:36.958Z,99.90
2019-06-26T00:10:06.988Z,99.90
2019-06-26T00:12:35.634Z,99.90
2019-06-26T00:15:09.085Z,99.90
2019-06-26T00:17:37.714Z,99.90
2019-06-26T00:20:07.462Z,99.90
2019-06-26T00:22:36.024Z,99.90
2019-06-26T00:25:06.930Z,99.90
2019-06-26T00:27:35.593Z,99.90
2019-06-26T00:30:06.402Z,99.90
2019-06-26T00:32:34.987Z,99.90
2019-06-26T00:35:04.390Z,99.90
2019-06-26T00:37:33.123Z,99.90
2019-06-26T00:40:01.769Z,99.90
2019-06-26T00:42:30.422Z,99.90
2019-06-26T00:44:59.004Z,99.90
2019-06-26T00:47:27.593Z,99.90
2019-06-26T00:49:56.299Z,99.90
2019-06-26T00:52:24.958Z,99.90
2019-06-26T00:54:53.607Z,99.90
2019-06-26T00:57:22.197Z,99.90
2019-06-26T00:59:50.839Z,99.90
2019-06-26T01:02:19.447Z,99.90
2019-06-26T01:04:49.630Z,99.90
2019-06-26T01:07:18.229Z,99.90
2019-06-26T01:09:46.814Z,99.90
2019-06-26T01:12:23.926Z,99.90
2019-06-26T01:14:55.033Z,99.90
2019-06-26T01:17:23.757Z,99.90
2019-06-26T01:19:52.309Z,99.90
2019-06-26T01:22:21.200Z,99.90
2019-06-26T01:24:49.911Z,99.90
2019-06-26T01:27:18.757Z,99.90
2019-06-26T01:29:47.398Z,99.90
2019-06-26T01:32:16.135Z,99.90
2019-06-26T01:34:44.698Z,99.90
2019-06-26T01:37:13.359Z,99.90
2019-06-26T01:39:41.937Z,99.90
2019-06-26T01:42:10.674Z,99.90
2019-06-26T01:44:39.234Z,99.90
2019-06-26T01:47:07.834Z,99.90
2019-06-26T01:49:36.401Z,99.90
2019-06-26T01:52:05.155Z,99.90
2019-06-26T01:54:33.710Z,99.90
2019-06-26T01:57:02.301Z,99.90
2019-06-26T01:59:30.869Z,99.90
2019-06-26T02:01:59.538Z,99.90
2019-06-26T02:04:28.121Z,99.90
2019-06-26T02:06:56.713Z,99.90
2019-06-26T02:09:25.372Z,99.90
2019-06-26T02:11:54.052Z,99.90
2019-06-26T02:14:30.872Z,99.90
2019-06-26T02:16:53.071Z,99.90
2019-06-26T02:19:21.882Z,99.90
2019-06-26T02:21:50.481Z,99.90
2019-06-26T02:24:19.115Z,99.90
2019-06-26T02:26:47.764Z,99.90
2019-06-26T02:29:16.342Z,99.90
2019-06-26T02:31:45.006Z,99.90
2019-06-26T02:34:13.578Z,99.90
2019-06-26T02:36:42.241Z,99.90
2019-06-26T02:39:10.942Z,99.90
2019-06-26T02:41:39.602Z,99.90
2019-06-26T02:44:08.229Z,99.90
2019-06-26T02:46:36.831Z,99.90
2019-06-26T02:49:05.465Z,99.90
2019-06-26T02:51:34.163Z,99.90
2019-06-26T02:54:02.838Z,99.90
2019-06-26T02:56:31.398Z,99.90
2019-06-26T02:59:00.136Z,99.90
2019-06-26T03:01:28.752Z,99.90
2019-06-26T03:03:57.347Z,99.90
2019-06-26T03:06:26.054Z,99.90
2019-06-26T03:08:54.713Z,99.90
2019-06-26T03:11:23.438Z,99.90
2019-06-26T03:13:52.019Z,99.90
2019-06-26T03:16:20.645Z,99.90
2019-06-26T03:18:49.284Z,99.90
2019-06-26T03:21:18.027Z,99.90
2019-06-26T03:23:46.671Z,99.90
2019-06-26T03:26:15.266Z,99.90
2019-06-26T03:28:43.893Z,99.90
2019-06-26T03:31:12.497Z,99.90
2019-06-26T03:33:41.070Z,99.90
2019-06-26T03:36:09.730Z,99.90
2019-06-26T03:38:38.375Z,99.90
2019-06-26T03:41:07.022Z,99.90
2019-06-26T03:43:35.878Z,99.90
2019-06-26T03:46:04.801Z,99.90
2019-06-26T03:48:33.433Z,99.90
2019-06-26T03:51:02.039Z,99.90
2019-06-26T03:53:30.744Z,99.90
2019-06-26T03:55:59.354Z,99.90
2019-06-26T03:58:27.921Z,99.90
2019-06-26T04:00:56.591Z,99.90
2019-06-26T04:03:25.157Z,99.90
2019-06-26T04:05:53.860Z,99.90
2019-06-26T04:08:22.458Z,99.90
2019-06-26T04:10:51.090Z,99.90
2019-06-26T04:13:19.755Z,99.90
2019-06-26T04:15:50.891Z,99.90
2019-06-26T04:18:18.622Z,99.90
2019-06-26T04:20:47.223Z,99.90
2019-06-26T04:23:16.011Z,99.90
2019-06-26T04:25:44.569Z,99.90
2019-06-26T04:28:13.323Z,99.90
2019-06-26T04:30:41.946Z,99.90
2019-06-26T04:33:10.536Z,99.90
2019-06-26T04:35:39.561Z,99.90
2019-06-26T04:38:08.604Z,99.90
2019-06-26T04:40:37.246Z,99.90
2019-06-26T04:43:05.905Z,99.90
2019-06-26T04:45:34.532Z,99.90
2019-06-26T04:48:06.015Z,99.90
2019-06-26T04:50:33.332Z,99.90
2019-06-26T04:53:02.074Z,99.90
2019-06-26T04:55:30.641Z,99.90
2019-06-26T04:57:59.293Z,99.90
2019-06-26T05:00:27.997Z,99.90
2019-06-26T05:02:56.722Z,99.90
2019-06-26T05:05:38.631Z,99.90
2019-06-26T05:07:55.592Z,99.90
2019-06-26T05:10:24.157Z,99.90
2019-06-26T05:12:52.719Z,99.90
2019-06-26T05:15:21.461Z,99.90
2019-06-26T05:17:50.128Z,99.90
2019-06-26T05:20:18.761Z,99.90
2019-06-26T05:22:47.340Z,99.90
2019-06-26T05:25:16.941Z,99.90
2019-06-26T05:27:45.634Z,99.90
2019-06-26T05:30:14.909Z,99.90
2019-06-26T05:32:43.506Z,99.90
2019-06-26T05:35:12.128Z,99.90
2019-06-26T05:37:40.785Z,99.90
2019-06-26T05:40:13.445Z,99.90
2019-06-26T05:42:42.160Z,99.90
2019-06-26T05:45:12.929Z,99.90
2019-06-26T05:47:41.691Z,99.90
2019-06-26T05:50:11.479Z,99.90
2019-06-26T05:52:42.852Z,99.90
2019-06-26T05:55:10.693Z,98.30
2019-06-26T05:57:41.809Z,96.50
2019-06-26T06:00:10.865Z,96.20
2019-06-26T06:02:39.422Z,95.00
2019-06-26T06:05:09.453Z,94.80
2019-06-26T06:07:38.084Z,93.40
2019-06-26T06:10:08.414Z,93.00
2019-06-26T06:12:37.109Z,94.00
2019-06-26T06:15:07.843Z,92.50
2019-06-26T06:17:36.846Z,92.80
2019-06-26T06:20:06.769Z,93.10
2019-06-26T06:22:35.404Z,90.70
2019-06-26T06:25:05.134Z,89.70
2019-06-26T06:27:33.760Z,84.70
2019-06-26T06:30:02.661Z,84.90
2019-06-26T06:32:31.257Z,83.10
2019-06-26T06:34:59.822Z,82.00
2019-06-26T06:37:28.492Z,76.50
2019-06-26T06:39:57.014Z,74.40
2019-06-26T06:42:25.675Z,68.80
2019-06-26T06:44:54.297Z,69.30
2019-06-26T06:47:22.902Z,70.10
2019-06-26T06:49:51.465Z,70.90
2019-06-26T06:52:20.130Z,71.70
2019-06-26T06:54:48.756Z,68.30
2019-06-26T06:57:17.413Z,62.80
2019-06-26T06:59:45.976Z,61.40
2019-06-26T07:02:14.641Z,60.10
2019-06-26T07:04:43.273Z,58.80
2019-06-26T07:07:11.941Z,57.70
2019-06-26T07:09:40.513Z,57.80
2019-06-26T07:12:09.231Z,59.60
2019-06-26T07:14:37.858Z,59.10
2019-06-26T07:17:19.895Z,56.70
2019-06-26T07:19:36.797Z,55.00
2019-06-26T07:22:07.338Z,53.90
2019-06-26T07:24:35.728Z,57.00
2019-06-26T07:27:04.432Z,57.20
2019-06-26T07:29:33.026Z,56.30
2019-06-26T07:32:01.585Z,53.60
2019-06-26T07:34:30.241Z,52.70
2019-06-26T07:36:58.870Z,54.00
2019-06-26T07:39:27.457Z,51.50
2019-06-26T07:41:56.027Z,51.70
2019-06-26T07:44:24.618Z,49.00
2019-06-26T07:46:53.177Z,49.00
2019-06-26T07:49:21.832Z,51.10
2019-06-26T07:51:50.530Z,50.60
2019-06-26T07:54:19.225Z,51.80
2019-06-26T07:56:47.841Z,50.40
2019-06-26T07:59:16.404Z,50.00
2019-06-26T08:01:44.991Z,49.80
2019-06-26T08:04:13.631Z,47.80
2019-06-26T08:06:42.366Z,49.50
2019-06-26T08:09:10.921Z,50.20
2019-06-26T08:11:39.507Z,53.20
2019-06-26T08:14:08.205Z,50.80
2019-06-26T08:16:36.878Z,51.00
2019-06-26T08:19:05.488Z,53.10
2019-06-26T08:21:34.222Z,53.70
2019-06-26T08:24:02.826Z,51.60
2019-06-26T08:26:31.441Z,49.70
2019-06-26T08:29:00.087Z,52.10
2019-06-26T08:31:28.626Z,52.00
2019-06-26T08:33:57.310Z,49.60
2019-06-26T08:36:25.865Z,48.10
2019-06-26T08:38:54.526Z,51.30
2019-06-26T08:41:23.101Z,49.40
2019-06-26T08:43:51.677Z,49.70
2019-06-26T08:46:20.235Z,47.50
2019-06-26T08:48:51.846Z,48.90
2019-06-26T08:51:19.258Z,48.30
2019-06-26T08:53:47.853Z,48.40
2019-06-26T08:56:16.435Z,50.00
2019-06-26T08:58:45.017Z,47.50
2019-06-26T09:01:13.574Z,47.30
2019-06-26T09:03:42.291Z,49.60
2019-06-26T09:06:10.829Z,47.60
2019-06-26T09:08:39.394Z,47.30
2019-06-26T09:11:07.977Z,47.60
2019-06-26T09:13:36.605Z,44.80
2019-06-26T09:16:05.267Z,45.40
2019-06-26T09:18:35.873Z,45.00
2019-06-26T09:21:04.189Z,44.90
2019-06-26T09:23:32.949Z,45.40
2019-06-26T09:26:01.630Z,44.10
2019-06-26T09:28:30.286Z,43.50
2019-06-26T09:30:58.897Z,42.40
2019-06-26T09:33:27.490Z,44.80
2019-06-26T09:35:56.144Z,47.70
2019-06-26T09:38:24.733Z,45.50
2019-06-26T09:40:53.288Z,44.70
2019-06-26T09:43:21.901Z,43.10
2019-06-26T09:45:50.448Z,42.70
2019-06-26T09:48:19.106Z,42.10
2019-06-26T09:50:47.687Z,39.80
2019-06-26T09:53:16.300Z,38.40
2019-06-26T09:55:44.857Z,40.20
2019-06-26T09:58:13.779Z,41.50
2019-06-26T10:00:42.577Z,41.00
2019-06-26T10:03:11.300Z,41.10
2019-06-26T10:05:40.521Z,38.90
2019-06-26T10:08:09.107Z,40.70
2019-06-26T10:10:37.769Z,40.80
2019-06-26T10:13:06.527Z,40.50
2019-06-26T10:15:35.161Z,38.30
2019-06-26T10:18:03.930Z,39.40
2019-06-26T10:20:32.647Z,40.00
2019-06-26T10:23:01.221Z,41.80
2019-06-26T10:25:29.961Z,39.00
2019-06-26T10:27:58.585Z,40.00
2019-06-26T10:30:27.315Z,37.60
2019-06-26T10:32:55.865Z,36.60
2019-06-26T10:35:24.449Z,38.90
2019-06-26T10:37:53.253Z,37.30
2019-06-26T10:40:22.075Z,37.10
2019-06-26T10:42:50.780Z,35.30
2019-06-26T10:45:20.235Z,34.40
2019-06-26T10:47:48.897Z,33.90
2019-06-26T10:50:17.596Z,32.80
2019-06-26T10:52:46.221Z,33.90
2019-06-26T10:55:15.028Z,35.60
2019-06-26T10:57:43.646Z,35.80
2019-06-26T11:00:12.843Z,36.40
2019-06-26T11:02:41.535Z,36.50
2019-06-26T11:05:11.152Z,36.40
2019-06-26T11:07:39.784Z,36.00
2019-06-26T11:10:09.600Z,36.00
2019-06-26T11:12:38.242Z,33.20
2019-06-26T11:15:08.685Z,30.40
2019-06-26T11:17:37.372Z,31.70
2019-06-26T11:20:07.941Z,32.70
2019-06-26T11:22:36.810Z,34.80
2019-06-26T11:25:07.411Z,35.70
2019-06-26T11:27:36.105Z,36.20
2019-06-26T11:30:07.786Z,36.80
2019-06-26T11:32:36.404Z,38.30
2019-06-26T11:35:06.729Z,38.40
2019-06-26T11:37:35.361Z,37.50
2019-06-26T11:40:06.365Z,37.00
2019-06-26T11:42:35.068Z,35.50
2019-06-26T11:45:05.354Z,35.30
2019-06-26T11:47:33.952Z,37.20
2019-06-26T11:50:02.942Z,35.20
2019-06-26T11:52:31.498Z,34.40
2019-06-26T11:55:02.901Z,32.30
2019-06-26T11:57:30.354Z,31.80
2019-06-26T11:59:58.910Z,31.40
2019-06-26T12:02:27.498Z,30.80
2019-06-26T12:04:56.077Z,34.00
2019-06-26T12:07:24.638Z,34.20
2019-06-26T12:09:53.337Z,34.90
2019-06-26T12:12:22.104Z,36.30
2019-06-26T12:14:50.830Z,33.00
2019-06-26T12:17:19.495Z,32.30
2019-06-26T12:19:48.054Z,31.80
2019-06-26T12:22:16.713Z,30.60
2019-06-26T12:24:45.271Z,32.30
2019-06-26T12:27:14.738Z,33.60
2019-06-26T12:29:43.303Z,34.90
2019-06-26T12:32:11.961Z,33.40
2019-06-26T12:34:40.519Z,33.20
2019-06-26T12:37:09.101Z,30.10
2019-06-26T12:39:37.671Z,31.70
2019-06-26T12:42:06.268Z,30.20
2019-06-26T12:44:34.805Z,29.60
2019-06-26T12:47:03.465Z,29.70
2019-06-26T12:49:32.153Z,27.90
2019-06-26T12:52:00.753Z,28.80
2019-06-26T12:54:29.306Z,28.70
2019-06-26T12:56:57.889Z,28.90
2019-06-26T12:59:26.447Z,28.30
2019-06-26T13:01:55.173Z,27.70
2019-06-26T13:04:23.797Z,27.70
2019-06-26T13:06:52.387Z,27.80
2019-06-26T13:09:21.013Z,28.20
2019-06-26T13:11:49.674Z,28.40
2019-06-26T13:14:18.303Z,28.40
2019-06-26T13:16:46.889Z,29.10
2019-06-26T13:19:15.526Z,29.80
2019-06-26T13:21:44.172Z,29.20
2019-06-26T13:24:12.866Z,30.50
2019-06-26T13:26:41.512Z,31.70
2019-06-26T13:29:10.306Z,32.00
2019-06-26T13:31:39.123Z,30.90
2019-06-26T13:34:07.749Z,30.00
2019-06-26T13:36:36.476Z,29.00
2019-06-26T13:39:06.577Z,29.20
2019-06-26T13:41:35.165Z,28.80
2019-06-26T13:44:03.862Z,28.90
2019-06-26T13:46:32.486Z,29.00
2019-06-26T13:49:01.072Z,29.80
2019-06-26T13:51:29.701Z,30.70
2019-06-26T13:53:58.426Z,30.30
2019-06-26T13:56:26.988Z,29.80
2019-06-26T13:58:55.639Z,29.70
2019-06-26T14:01:24.422Z,29.10
2019-06-26T14:03:53.143Z,29.20
2019-06-26T14:06:21.699Z,29.90
2019-06-26T14:08:56.305Z,30.00
2019-06-26T14:11:27.756Z,31.10
2019-06-26T14:13:56.683Z,32.00
2019-06-26T14:16:25.658Z,32.10
2019-06-26T14:18:54.685Z,30.40
2019-06-26T14:21:26.012Z,30.80
2019-06-26T14:26:22.761Z,29.10
2019-06-26T14:28:54.005Z,30.60
2019-06-26T14:31:22.344Z,32.40
2019-06-26T14:33:51.370Z,35.70
2019-06-26T14:36:23.274Z,38.90
2019-06-26T14:38:54.771Z,40.60
2019-06-26T14:41:23.380Z,41.90
2019-06-26T14:43:52.173Z,43.30
2019-06-26T14:46:20.898Z,45.20
2019-06-26T14:48:49.456Z,45.70
2019-06-26T14:51:18.147Z,48.70
2019-06-26T14:53:46.818Z,47.10
2019-06-26T14:56:15.406Z,48.20
2019-06-26T14:58:43.960Z,48.10
2019-06-26T15:01:12.554Z,48.80
2019-06-26T15:03:41.109Z,48.90
2019-06-26T15:06:16.571Z,51.50
2019-06-26T15:08:40.233Z,51.10
2019-06-26T15:11:09.260Z,51.20
2019-06-26T15:13:38.153Z,52.20
2019-06-26T15:16:07.057Z,51.10
2019-06-26T15:18:35.788Z,51.10
2019-06-26T15:21:04.892Z,51.90
2019-06-26T15:23:33.644Z,51.70
2019-06-26T15:26:10.581Z,51.80
2019-06-26T15:28:39.773Z,52.30
2019-06-26T15:31:08.915Z,52.70
2019-06-26T15:33:37.922Z,51.80
2019-06-26T15:36:06.537Z,54.50
2019-06-26T15:38:35.198Z,52.70
2019-06-26T15:41:03.835Z,53.00
2019-06-26T15:43:32.414Z,52.70
2019-06-26T15:46:01.049Z,52.90
2019-06-26T15:48:29.632Z,53.40
2019-06-26T15:50:58.330Z,54.50
2019-06-26T15:53:26.917Z,52.60
2019-06-26T15:55:55.481Z,53.10
2019-06-26T15:58:24.825Z,54.50
2019-06-26T16:00:53.398Z,53.60
2019-06-26T16:03:22.057Z,53.30
2019-06-26T16:05:50.703Z,54.70
2019-06-26T16:08:19.532Z,55.10
2019-06-26T16:10:48.066Z,55.40
2019-06-26T16:13:16.802Z,55.50
2019-06-26T16:15:45.366Z,55.60
2019-06-26T16:18:15.697Z,56.70
2019-06-26T16:20:45.013Z,56.20
2019-06-26T16:23:16.056Z,56.30
2019-06-26T16:25:45.248Z,55.90
2019-06-26T16:28:14.489Z,55.20
2019-06-26T16:30:43.650Z,55.80
2019-06-26T16:33:12.244Z,56.20
2019-06-26T16:35:40.873Z,55.70
2019-06-26T16:38:09.465Z,56.50
2019-06-26T16:40:38.057Z,57.20
2019-06-26T16:43:06.686Z,57.30
2019-06-26T16:45:36.437Z,57.60
2019-06-26T16:48:14.371Z,57.60
2019-06-26T16:50:43.366Z,58.10
2019-06-26T16:53:13.160Z,57.70
2019-06-26T16:55:42.232Z,58.10
2019-06-26T16:58:11.837Z,58.20
2019-06-26T17:00:40.684Z,58.90
2019-06-26T17:03:09.373Z,59.90
2019-06-26T17:05:38.110Z,60.00
2019-06-26T17:08:06.806Z,59.80
2019-06-26T17:10:35.503Z,59.90
2019-06-26T17:13:04.669Z,60.70
2019-06-26T17:15:33.678Z,61.50
2019-06-26T17:18:02.572Z,62.30
2019-06-26T17:20:31.169Z,63.00
2019-06-26T17:23:05.499Z,63.90
2019-06-26T17:25:30.164Z,64.20
2019-06-26T17:27:58.877Z,65.20
2019-06-26T17:30:27.597Z,66.00
2019-06-26T17:32:56.255Z,65.80
2019-06-26T17:35:24.944Z,66.40
2019-06-26T17:37:53.540Z,66.30
2019-06-26T17:40:22.557Z,66.30
2019-06-26T17:42:51.247Z,66.70
2019-06-26T17:45:20.953Z,66.20
2019-06-26T17:47:50.067Z,66.90
2019-06-26T17:50:20.602Z,67.30
2019-06-26T17:52:49.681Z,67.50
2019-06-26T20:19:07.007Z,99.90
2019-06-26T20:21:35.794Z,99.90
2019-06-26T20:26:53.923Z,99.90
2019-06-26T20:29:22.610Z,99.90
2019-06-26T20:31:51.923Z,99.90
2019-06-26T20:34:20.521Z,99.90
2019-06-26T20:36:49.274Z,99.90
2019-06-26T20:39:17.843Z,99.90
2019-06-26T20:41:47.073Z,99.90
2019-06-26T20:44:19.217Z,99.90
2019-06-26T20:46:48.243Z,99.90
2019-06-26T20:49:17.142Z,99.90
2019-06-26T20:51:46.368Z,99.90
2019-06-26T20:54:15.238Z,99.90
2019-06-26T20:56:44.308Z,99.90
2019-06-26T20:59:13.287Z,99.90
2019-06-26T21:01:42.199Z,99.90
2019-06-26T21:04:11.073Z,99.90
2019-06-26T21:06:39.738Z,99.90
2019-06-26T21:09:09.777Z,99.90
2019-06-26T21:11:38.535Z,99.90
2019-06-26T21:14:07.213Z,99.90
2019-06-26T21:16:36.081Z,99.90
2019-06-26T21:19:04.804Z,99.90
2019-06-26T21:21:33.561Z,99.90
2019-06-26T21:24:02.379Z,99.90
2019-06-26T21:26:31.994Z,99.90
2019-06-26T21:29:00.949Z,99.90
2019-06-26T21:31:29.847Z,99.90
2019-06-26T21:33:58.489Z,99.90
2019-06-26T21:36:27.226Z,99.90
2019-06-26T21:38:56.179Z,99.90
2019-06-26T21:41:24.831Z,99.90
2019-06-26T21:43:53.600Z,99.90
2019-06-26T21:46:22.233Z,99.90
2019-06-26T21:48:53.134Z,99.90
2019-06-26T21:51:21.879Z,99.90
2019-06-26T21:53:50.638Z,99.90
2019-06-26T21:56:19.714Z,99.90
2019-06-26T21:58:50.322Z,99.90
2019-06-26T22:01:19.992Z,99.90
2019-06-26T22:03:48.889Z,99.90
2019-06-26T22:06:19.367Z,99.90
2019-06-26T22:08:49.017Z,99.90
2019-06-26T22:11:18.480Z,99.90
2019-06-26T22:13:47.321Z,99.90
2019-06-26T22:16:16.468Z,99.90
2019-06-26T22:18:46.024Z,99.90
2019-06-26T22:21:15.558Z,99.90
2019-06-26T22:23:44.822Z,99.90
2019-06-26T22:26:14.506Z,99.90
2019-06-26T22:28:44.177Z,99.90
2019-06-26T22:31:12.873Z,99.90
2019-06-26T22:33:41.471Z,99.90
2019-06-26T22:36:10.097Z,99.90
2019-06-26T22:38:38.698Z,99.90
2019-06-26T22:41:07.449Z,99.90
2019-06-26T22:43:36.081Z,99.90
2019-06-26T22:46:04.790Z,99.90
2019-06-26T22:48:33.461Z,99.90
2019-06-26T22:51:02.030Z,99.90
2019-06-26T22:53:30.772Z,99.90
2019-06-26T22:56:07.482Z,99.90
2019-06-26T22:58:29.725Z,99.90
2019-06-26T23:00:58.399Z,99.90
2019-06-26T23:03:27.035Z,99.90
2019-06-26T23:05:55.733Z,99.90
2019-06-26T23:08:24.331Z,99.90
2019-06-26T23:10:53.274Z,99.90
2019-06-26T23:13:21.970Z,99.90
2019-06-26T23:15:51.008Z,99.90
2019-06-26T23:18:20.104Z,99.90
2019-06-26T23:20:48.960Z,99.90
2019-06-26T23:23:17.523Z,99.90
2019-06-26T23:25:46.089Z,99.90
2019-06-26T23:28:14.816Z,99.90
2019-06-26T23:30:43.451Z,99.90
2019-06-26T23:33:12.065Z,99.90
2019-06-26T23:35:40.682Z,99.90
2019-06-26T23:38:09.286Z,99.90
2019-06-26T23:40:37.910Z,99.90
2019-06-26T23:43:06.574Z,99.90
2019-06-26T23:45:35.279Z,99.90
2019-06-26T23:48:04.246Z,99.90
2019-06-26T23:50:32.909Z,99.90
2019-06-26T23:53:01.558Z,99.90
2019-06-26T23:55:30.197Z,99.90
2019-06-26T23:57:59.724Z,99.90
